Time;durP1;ratioP1;P1;durP2;ratioP2;P2;SDS_P1;SDS_P2;PMS_P1;PMS_P2;Temp;Humidity;BMP_temperature;BMP_pressure;BME280_temperature;BME280_humidity;BME280_pressure;Samples;Min_cycle;Max_cycle;Signal;HPM_P1;HPM_P2
2024/01/16 00:00:20;;;;;;;56.03;3.35;;;;;;;;;;5051816;28;20229;-75
2024/01/16 00:02:47;;;;;;;55.70;2.50;;;;;;;;;;5051716;28;20209;-75
2024/01/16 00:05:15;;;;;;;55.90;2.90;;;;;;;;;;5051871;28;20242;-75
2024/01/16 00:07:42;;;;;;;55.80;2.50;;;;;;;;;;5051759;28;20211;-74
2024/01/16 00:10:09;;;;;;;56.00;2.70;;;;;;;;;;5051691;28;20198;-75
2024/01/16 00:12:40;;;;;;;55.88;2.78;;;;;;;;;;5051458;28;20207;-75
2024/01/16 00:15:07;;;;;;;56.05;3.10;;;;;;;;;;5051200;28;20222;-75
2024/01/16 00:17:34;;;;;;;55.60;2.40;;;;;;;;;;5051184;28;20214;-75
2024/01/16 00:20:01;;;;;;;55.60;2.28;;;;;;;;;;5051606;28;20893;-76
2024/01/16 00:22:28;;;;;;;55.80;2.60;;;;;;;;;;5052089;28;20206;-75
2024/01/16 00:24:55;;;;;;;56.00;3.00;;;;;;;;;;5051550;28;20234;-75
2024/01/16 00:27:22;;;;;;;55.67;2.70;;;;;;;;;;5051270;28;20198;-75
2024/01/16 00:29:51;;;;;;;55.80;2.75;;;;;;;;;;5051749;28;20206;-74
2024/01/16 00:32:18;;;;;;;55.75;2.42;;;;;;;;;;5052330;28;20203;-75
2024/01/16 00:34:45;;;;;;;56.10;2.83;;;;;;;;;;5051333;28;20230;-75
2024/01/16 00:37:12;;;;;;;55.78;2.53;;;;;;;;;;5055158;28;20216;-74
2024/01/16 00:39:39;;;;;;;55.72;2.60;;;;;;;;;;5055807;28;20211;-76
2024/01/16 00:42:06;;;;;;;55.90;2.40;;;;;;;;;;5055897;28;20649;-75
2024/01/16 00:44:34;;;;;;;55.88;2.90;;;;;;;;;;5055193;28;20306;-75
2024/01/16 00:47:04;;;;;;;55.80;2.50;;;;;;;;;;5055501;28;20238;-75
2024/01/16 00:49:32;;;;;;;55.95;2.65;;;;;;;;;;5055606;28;20306;-75
2024/01/16 00:51:59;;;;;;;55.65;2.30;;;;;;;;;;5055760;28;20199;-75
2024/01/16 00:54:26;;;;;;;55.80;2.50;;;;;;;;;;5055338;28;20237;-75
2024/01/16 00:56:55;;;;;;;55.83;2.70;;;;;;;;;;5055273;28;20216;-75
2024/01/16 00:59:22;;;;;;;55.78;2.65;;;;;;;;;;5055817;28;20209;-74
2024/01/16 01:01:49;;;;;;;55.85;2.40;;;;;;;;;;5055573;28;20249;-75
2024/01/16 01:04:18;;;;;;;56.10;2.85;;;;;;;;;;5055424;28;20226;-75
2024/01/16 01:06:45;;;;;;;55.58;2.47;;;;;;;;;;5055532;28;20207;-75
2024/01/16 01:09:12;;;;;;;55.97;2.80;;;;;;;;;;5055711;28;20211;-75
2024/01/16 01:11:39;;;;;;;55.80;2.30;;;;;;;;;;5055325;28;20203;-75
2024/01/16 01:14:07;;;;;;;55.80;2.80;;;;;;;;;;5055164;28;20222;-74
2024/01/16 01:16:34;;;;;;;55.80;2.70;;;;;;;;;;5054427;28;20304;-74
2024/01/16 01:19:01;;;;;;;57.42;3.47;;;;;;;;;;5054815;28;20305;-75
2024/01/16 01:21:29;;;;;;;55.90;2.70;;;;;;;;;;5055215;28;20309;-75
2024/01/16 01:23:56;;;;;;;55.67;2.67;;;;;;;;;;5054446;28;20234;-74
2024/01/16 01:26:23;;;;;;;55.70;2.88;;;;;;;;;;5054523;28;20701;-75
2024/01/16 01:28:51;;;;;;;55.70;2.40;;;;;;;;;;5054671;28;20203;-73
2024/01/16 01:31:18;;;;;;;55.80;2.60;;;;;;;;;;5054479;28;20198;-75
2024/01/16 01:33:45;;;;;;;55.88;2.60;;;;;;;;;;5054476;28;20716;-74
2024/01/16 01:36:12;;;;;;;55.67;2.80;;;;;;;;;;5054138;28;20298;-75
2024/01/16 01:38:40;;;;;;;55.78;2.50;;;;;;;;;;5053920;28;20201;-74
2024/01/16 01:41:08;;;;;;;55.67;2.90;;;;;;;;;;5053938;28;20227;-75
2024/01/16 01:43:35;;;;;;;55.90;2.97;;;;;;;;;;5053977;28;20240;-74
2024/01/16 01:46:10;;;;;;;55.50;2.53;;;;;;;;;;5054200;28;20220;-75
2024/01/16 01:48:39;;;;;;;55.90;2.90;;;;;;;;;;5053993;28;20210;-75
2024/01/16 01:51:06;;;;;;;55.70;2.97;;;;;;;;;;5053769;28;20206;-75
2024/01/16 01:53:35;;;;;;;55.70;2.50;;;;;;;;;;5053553;28;20231;-75
2024/01/16 01:56:05;;;;;;;55.80;2.85;;;;;;;;;;5053578;28;20221;-75
2024/01/16 01:58:32;;;;;;;55.85;2.50;;;;;;;;;;5053892;28;20261;-75
2024/01/16 02:01:00;;;;;;;55.60;2.35;;;;;;;;;;5053574;28;20711;-75
2024/01/16 02:03:29;;;;;;;55.80;2.50;;;;;;;;;;5053559;28;20236;-74
2024/01/16 02:05:56;;;;;;;56.17;2.88;;;;;;;;;;5053918;28;20297;-75
2024/01/16 02:08:24;;;;;;;55.78;2.63;;;;;;;;;;5054560;28;20202;-74
2024/01/16 02:10:51;;;;;;;55.78;2.60;;;;;;;;;;5054095;28;20199;-74
2024/01/16 02:13:23;;;;;;;55.70;2.40;;;;;;;;;;5053252;28;20317;-75
2024/01/16 02:15:50;;;;;;;55.80;2.65;;;;;;;;;;5053409;28;20209;-75
2024/01/16 02:18:17;;;;;;;55.83;2.53;;;;;;;;;;5053660;28;20220;-75
2024/01/16 02:20:45;;;;;;;55.70;2.60;;;;;;;;;;5053497;28;20317;-75
2024/01/16 02:23:13;;;;;;;55.60;2.30;;;;;;;;;;5053205;28;20675;-75
2024/01/16 02:25:42;;;;;;;56.10;3.08;;;;;;;;;;5053382;28;20207;-75
2024/01/16 02:28:10;;;;;;;55.80;2.80;;;;;;;;;;5053610;28;20202;-74
2024/01/16 02:30:37;;;;;;;55.80;3.05;;;;;;;;;;5053512;28;20209;-75
2024/01/16 02:33:04;;;;;;;55.90;2.65;;;;;;;;;;5053147;28;20220;-74
2024/01/16 02:35:31;;;;;;;55.85;2.70;;;;;;;;;;5053389;28;20221;-75
2024/01/16 02:38:00;;;;;;;55.85;2.65;;;;;;;;;;5053183;28;20206;-75
2024/01/16 02:40:27;;;;;;;55.90;2.92;;;;;;;;;;5052981;28;20282;-75
2024/01/16 02:42:55;;;;;;;55.67;2.85;;;;;;;;;;5053125;28;20297;-74
2024/01/16 02:45:23;;;;;;;55.85;2.92;;;;;;;;;;5052848;28;20203;-75
2024/01/16 02:47:50;;;;;;;56.08;2.92;;;;;;;;;;5052652;28;20210;-75
2024/01/16 02:50:17;;;;;;;55.88;2.50;;;;;;;;;;5052867;28;20654;-75
2024/01/16 02:52:44;;;;;;;55.80;2.85;;;;;;;;;;5052829;28;20202;-74
2024/01/16 02:55:11;;;;;;;55.78;2.95;;;;;;;;;;5052662;28;20228;-75
2024/01/16 02:57:38;;;;;;;55.80;2.30;;;;;;;;;;5052642;28;20604;-73
2024/01/16 03:00:08;;;;;;;55.58;2.88;;;;;;;;;;5052374;28;20212;-75
2024/01/16 03:02:35;;;;;;;55.67;2.45;;;;;;;;;;5053038;28;20233;-75
2024/01/16 03:05:04;;;;;;;55.90;2.80;;;;;;;;;;5052490;28;20226;-74
2024/01/16 03:07:32;;;;;;;56.00;2.70;;;;;;;;;;5052589;28;20205;-74
2024/01/16 03:09:59;;;;;;;55.78;2.85;;;;;;;;;;5052201;28;20695;-74
2024/01/16 03:12:26;;;;;;;56.08;2.95;;;;;;;;;;5052371;28;20202;-75
2024/01/16 03:14:54;;;;;;;55.58;2.80;;;;;;;;;;5052198;28;20226;-75
2024/01/16 03:17:22;;;;;;;56.00;3.00;;;;;;;;;;5052002;28;20210;-75
2024/01/16 03:19:49;;;;;;;55.67;2.50;;;;;;;;;;5051748;28;20214;-75
2024/01/16 03:22:16;;;;;;;55.78;2.85;;;;;;;;;;5051809;28;20232;-75
2024/01/16 03:24:43;;;;;;;55.90;2.90;;;;;;;;;;5052292;28;20235;-75
2024/01/16 03:27:10;;;;;;;55.80;2.85;;;;;;;;;;5051478;28;20370;-75
2024/01/16 03:29:38;;;;;;;55.90;2.90;;;;;;;;;;5052143;28;20611;-75
2024/01/16 03:32:05;;;;;;;55.85;2.70;;;;;;;;;;5051782;28;20298;-75
2024/01/16 03:34:33;;;;;;;55.78;2.50;;;;;;;;;;5051693;28;20230;-75
2024/01/16 03:37:01;;;;;;;55.95;2.70;;;;;;;;;;5051778;28;20567;-75
2024/01/16 03:39:28;;;;;;;55.90;3.00;;;;;;;;;;5051248;28;20298;-75
2024/01/16 03:41:55;;;;;;;55.80;2.70;;;;;;;;;;5051722;28;20284;-75
2024/01/16 03:44:22;;;;;;;55.60;2.60;;;;;;;;;;5051577;28;20229;-75
2024/01/16 03:46:49;;;;;;;55.70;2.90;;;;;;;;;;5051528;28;20582;-75
2024/01/16 03:49:16;;;;;;;56.10;2.97;;;;;;;;;;5052091;28;20211;-75
2024/01/16 03:51:46;;;;;;;55.67;2.40;;;;;;;;;;5051891;28;20203;-74
2024/01/16 03:54:13;;;;;;;55.72;2.83;;;;;;;;;;5051470;28;20225;-75
2024/01/16 03:56:41;;;;;;;55.90;2.60;;;;;;;;;;5051600;28;20214;-75
2024/01/16 03:59:08;;;;;;;56.03;3.22;;;;;;;;;;5051420;28;20263;-74
2024/01/16 04:01:36;;;;;;;55.88;2.97;;;;;;;;;;5051497;28;20261;-74
2024/01/16 04:04:06;;;;;;;55.72;2.70;;;;;;;;;;5051338;28;20229;-74
2024/01/16 04:06:33;;;;;;;55.90;2.45;;;;;;;;;;5051168;28;20210;-74
2024/01/16 04:09:02;;;;;;;55.75;2.33;;;;;;;;;;5051472;28;20307;-74
2024/01/16 04:11:30;;;;;;;55.78;2.78;;;;;;;;;;5051050;28;20472;-75
2024/01/16 04:13:57;;;;;;;56.05;2.80;;;;;;;;;;5050929;28;20317;-73
2024/01/16 04:16:24;;;;;;;56.00;2.90;;;;;;;;;;5050713;28;20682;-74
2024/01/16 04:18:51;;;;;;;55.80;2.60;;;;;;;;;;5051401;28;20579;-75
2024/01/16 04:21:18;;;;;;;56.08;3.00;;;;;;;;;;5051145;28;20208;-74
2024/01/16 04:23:45;;;;;;;55.90;2.80;;;;;;;;;;5051101;28;20225;-74
2024/01/16 04:26:14;;;;;;;55.78;2.55;;;;;;;;;;5050816;28;20209;-74
2024/01/16 04:28:42;;;;;;;55.58;2.50;;;;;;;;;;5050597;28;20213;-75
2024/01/16 04:31:11;;;;;;;55.90;2.45;;;;;;;;;;5051001;28;20206;-75
2024/01/16 04:33:38;;;;;;;56.10;3.20;;;;;;;;;;5051038;28;20230;-75
2024/01/16 04:36:06;;;;;;;56.08;2.85;;;;;;;;;;5050829;28;20216;-74
2024/01/16 04:38:33;;;;;;;56.10;3.55;;;;;;;;;;5051037;28;20210;-75
2024/01/16 04:41:02;;;;;;;56.00;2.50;;;;;;;;;;5050728;28;20657;-74
2024/01/16 04:43:31;;;;;;;56.00;2.70;;;;;;;;;;5050570;28;20729;-74
2024/01/16 04:45:58;;;;;;;55.42;2.60;;;;;;;;;;5051472;28;20207;-75
2024/01/16 04:48:25;;;;;;;56.10;2.75;;;;;;;;;;5050847;28;20293;-75
2024/01/16 04:50:52;;;;;;;56.20;2.83;;;;;;;;;;5051222;28;20213;-75
2024/01/16 04:53:19;;;;;;;56.00;2.70;;;;;;;;;;5050762;28;20230;-74
2024/01/16 04:55:46;;;;;;;55.90;2.53;;;;;;;;;;5050699;28;20300;-74
2024/01/16 04:58:13;;;;;;;56.03;2.90;;;;;;;;;;5050921;28;20216;-75
2024/01/16 05:00:42;;;;;;;56.00;2.45;;;;;;;;;;5050969;28;20553;-75
2024/01/16 05:03:09;;;;;;;55.78;2.40;;;;;;;;;;5050856;28;20222;-74
2024/01/16 05:05:36;;;;;;;55.80;2.63;;;;;;;;;;5050779;28;20245;-74
2024/01/16 05:08:03;;;;;;;55.88;3.15;;;;;;;;;;5050501;28;20210;-74
2024/01/16 05:10:30;;;;;;;56.20;3.42;;;;;;;;;;5051160;28;20223;-74
2024/01/16 05:12:57;;;;;;;55.88;2.80;;;;;;;;;;5051184;28;20198;-74
2024/01/16 05:15:24;;;;;;;56.00;2.80;;;;;;;;;;5050782;28;20213;-74
2024/01/16 05:17:54;;;;;;;55.95;2.70;;;;;;;;;;5050552;28;20218;-74
2024/01/16 05:20:21;;;;;;;55.95;2.92;;;;;;;;;;5050705;28;20213;-74
2024/01/16 05:22:48;;;;;;;56.08;2.90;;;;;;;;;;5053235;28;20679;-75
2024/01/16 05:25:17;;;;;;;55.75;2.65;;;;;;;;;;5054442;28;20226;-74
2024/01/16 05:27:44;;;;;;;55.63;3.15;;;;;;;;;;5054499;28;20206;-75
2024/01/16 05:30:11;;;;;;;60.13;3.72;;;;;;;;;;5054144;28;20206;-74
2024/01/16 05:32:41;;;;;;;55.60;2.50;;;;;;;;;;5054119;28;20212;-75
2024/01/16 05:35:10;;;;;;;55.90;2.80;;;;;;;;;;5054105;28;20226;-74
2024/01/16 05:37:37;;;;;;;55.90;3.00;;;;;;;;;;5053957;28;20260;-73
2024/01/16 05:40:06;;;;;;;55.90;2.60;;;;;;;;;;5054199;28;20206;-75
2024/01/16 05:42:34;;;;;;;55.90;2.50;;;;;;;;;;5054199;28;20222;-74
2024/01/16 05:45:02;;;;;;;55.47;2.38;;;;;;;;;;5054225;28;20232;-75
2024/01/16 05:47:30;;;;;;;55.78;2.60;;;;;;;;;;5054183;28;20209;-74
2024/01/16 05:49:57;;;;;;;57.10;3.38;;;;;;;;;;5054272;28;20209;-74
2024/01/16 05:52:26;;;;;;;55.90;2.80;;;;;;;;;;5054087;28;20233;-74
2024/01/16 05:54:57;;;;;;;55.70;2.80;;;;;;;;;;5054130;28;20226;-75
2024/01/16 05:57:24;;;;;;;55.90;2.60;;;;;;;;;;5053873;28;20245;-74
2024/01/16 05:59:51;;;;;;;55.90;2.50;;;;;;;;;;5054259;28;20228;-76
2024/01/16 06:02:18;;;;;;;55.90;2.60;;;;;;;;;;5054017;28;20233;-75
2024/01/16 06:04:46;;;;;;;56.15;3.35;;;;;;;;;;5054409;28;20232;-73
2024/01/16 06:07:13;;;;;;;57.58;4.18;;;;;;;;;;5054537;28;20213;-74
2024/01/16 06:09:41;;;;;;;56.10;2.90;;;;;;;;;;5054819;28;20636;-73
2024/01/16 06:12:09;;;;;;;56.10;2.60;;;;;;;;;;5054717;28;20207;-74
2024/01/16 06:14:36;;;;;;;55.78;2.60;;;;;;;;;;5054920;28;20231;-73
2024/01/16 06:17:05;;;;;;;55.83;2.70;;;;;;;;;;5054668;28;20225;-74
2024/01/16 06:19:32;;;;;;;55.88;2.65;;;;;;;;;;5055631;28;20288;-74
2024/01/16 06:22:00;;;;;;;55.88;2.60;;;;;;;;;;5054883;28;20313;-74
2024/01/16 06:24:27;;;;;;;56.30;2.97;;;;;;;;;;5054885;28;20335;-74
2024/01/16 06:26:55;;;;;;;55.90;2.92;;;;;;;;;;5054684;28;20217;-74
2024/01/16 06:29:22;;;;;;;55.88;2.60;;;;;;;;;;5053979;28;20210;-73
2024/01/16 06:31:49;;;;;;;55.58;2.60;;;;;;;;;;5054538;28;20206;-74
2024/01/16 06:34:16;;;;;;;55.75;2.75;;;;;;;;;;5052827;28;20230;-73
2024/01/16 06:36:44;;;;;;;55.97;2.70;;;;;;;;;;5054281;28;20205;-73
2024/01/16 06:39:13;;;;;;;56.00;3.15;;;;;;;;;;5053914;28;20210;-74
2024/01/16 06:41:40;;;;;;;55.88;2.80;;;;;;;;;;5054180;28;20281;-74
2024/01/16 06:44:09;;;;;;;55.90;2.75;;;;;;;;;;5053488;28;20236;-73
2024/01/16 06:46:36;;;;;;;55.80;2.80;;;;;;;;;;5053562;28;20212;-75
2024/01/16 06:49:03;;;;;;;56.10;2.70;;;;;;;;;;5054579;28;20283;-74
2024/01/16 06:51:30;;;;;;;55.75;2.95;;;;;;;;;;5054091;28;20206;-74
2024/01/16 06:53:57;;;;;;;56.00;2.95;;;;;;;;;;5054178;28;20222;-74
2024/01/16 06:56:25;;;;;;;55.83;2.50;;;;;;;;;;5053592;28;20210;-74
2024/01/16 06:58:52;;;;;;;55.78;2.60;;;;;;;;;;5054144;28;20206;-74
2024/01/16 07:01:21;;;;;;;55.80;2.78;;;;;;;;;;5053453;28;20293;-73
2024/01/16 07:03:48;;;;;;;55.85;2.60;;;;;;;;;;5053503;28;20292;-73
2024/01/16 07:06:15;;;;;;;55.70;2.40;;;;;;;;;;5053806;28;20210;-73
2024/01/16 07:08:42;;;;;;;55.80;2.60;;;;;;;;;;5053708;28;20651;-74
2024/01/16 07:11:12;;;;;;;56.00;2.83;;;;;;;;;;5053740;28;20232;-74
2024/01/16 07:13:40;;;;;;;55.90;2.50;;;;;;;;;;5053894;28;20265;-70
2024/01/16 07:16:07;;;;;;;55.67;2.50;;;;;;;;;;5053440;28;20216;-75
2024/01/16 07:18:35;;;;;;;55.85;2.50;;;;;;;;;;5054098;28;20214;-74
2024/01/16 07:21:03;;;;;;;55.97;2.60;;;;;;;;;;5054011;28;20217;-74
2024/01/16 07:23:30;;;;;;;55.70;2.53;;;;;;;;;;5053901;28;20237;-75
2024/01/16 07:25:57;;;;;;;55.88;2.70;;;;;;;;;;5054244;28;20213;-74
2024/01/16 07:28:24;;;;;;;55.75;2.60;;;;;;;;;;5053274;28;20241;-74
2024/01/16 07:30:53;;;;;;;55.67;2.83;;;;;;;;;;5053543;28;20210;-73
2024/01/16 07:33:21;;;;;;;55.80;2.70;;;;;;;;;;5053640;28;20222;-75
2024/01/16 07:35:49;;;;;;;55.80;2.65;;;;;;;;;;5053234;28;20217;-74
2024/01/16 07:38:16;;;;;;;55.90;2.60;;;;;;;;;;5052892;28;20211;-74
2024/01/16 07:40:43;;;;;;;55.88;2.80;;;;;;;;;;5053495;28;20216;-75
2024/01/16 07:43:10;;;;;;;55.90;3.03;;;;;;;;;;5053412;28;20276;-75
2024/01/16 07:45:38;;;;;;;56.28;3.35;;;;;;;;;;5053924;28;20206;-73
2024/01/16 07:48:05;;;;;;;55.90;2.72;;;;;;;;;;5053899;28;20209;-75
2024/01/16 07:50:32;;;;;;;55.95;3.15;;;;;;;;;;5053314;28;20285;-75
2024/01/16 07:53:01;;;;;;;55.90;2.60;;;;;;;;;;5053683;28;20206;-75
2024/01/16 07:55:28;;;;;;;55.80;3.00;;;;;;;;;;5053670;28;20233;-74
2024/01/16 07:57:55;;;;;;;55.70;2.58;;;;;;;;;;5053611;28;20218;-73
2024/01/16 08:00:23;;;;;;;55.58;2.72;;;;;;;;;;5053611;28;20553;-75
2024/01/16 08:02:50;;;;;;;55.70;2.60;;;;;;;;;;5053521;28;20715;-75
2024/01/16 08:05:17;;;;;;;55.78;2.60;;;;;;;;;;5053578;28;20230;-75
2024/01/16 08:07:44;;;;;;;55.60;2.70;;;;;;;;;;5054268;28;20214;-75
2024/01/16 08:10:12;;;;;;;55.47;2.50;;;;;;;;;;5054494;28;20265;-76
2024/01/16 08:12:39;;;;;;;55.80;2.47;;;;;;;;;;5054198;28;20199;-75
2024/01/16 08:15:08;;;;;;;55.90;2.95;;;;;;;;;;5053694;28;20221;-75
2024/01/16 08:17:35;;;;;;;55.67;2.50;;;;;;;;;;5054032;28;20272;-75
2024/01/16 08:20:03;;;;;;;55.75;2.88;;;;;;;;;;5052693;28;20214;-75
2024/01/16 08:22:30;;;;;;;55.67;2.63;;;;;;;;;;5053024;28;20288;-75
2024/01/16 08:24:57;;;;;;;56.97;3.40;;;;;;;;;;5052877;28;20225;-75
2024/01/16 08:27:25;;;;;;;55.78;2.50;;;;;;;;;;5052690;28;20210;-76
2024/01/16 08:29:52;;;;;;;55.78;2.60;;;;;;;;;;5052844;28;20226;-74
2024/01/16 08:32:19;;;;;;;55.80;2.60;;;;;;;;;;5053449;28;20229;-75
2024/01/16 08:34:47;;;;;;;55.60;2.53;;;;;;;;;;5052882;28;20233;-75
2024/01/16 08:37:14;;;;;;;55.90;2.70;;;;;;;;;;5052642;28;20198;-75
2024/01/16 08:39:41;;;;;;;55.80;3.00;;;;;;;;;;5053316;28;20621;-75
2024/01/16 08:42:11;;;;;;;55.80;2.80;;;;;;;;;;5053511;28;20203;-76
2024/01/16 08:44:40;;;;;;;67.13;3.85;;;;;;;;;;5052988;28;20262;-76
2024/01/16 08:47:07;;;;;;;55.67;2.70;;;;;;;;;;5051846;28;20207;-75
2024/01/16 08:49:34;;;;;;;55.60;2.50;;;;;;;;;;5051357;28;20671;-75
2024/01/16 08:52:02;;;;;;;55.60;2.60;;;;;;;;;;5051374;28;20226;-75
2024/01/16 08:54:29;;;;;;;55.60;2.60;;;;;;;;;;5051301;28;20589;-74
2024/01/16 08:56:56;;;;;;;55.50;2.50;;;;;;;;;;5051751;28;20207;-75
2024/01/16 08:59:24;;;;;;;55.67;2.40;;;;;;;;;;5054496;28;20209;-75
2024/01/16 09:01:53;;;;;;;55.80;2.60;;;;;;;;;;5054684;28;20203;-74
2024/01/16 09:04:20;;;;;;;55.80;2.60;;;;;;;;;;5054424;28;20233;-75
2024/01/16 09:06:47;;;;;;;55.70;3.05;;;;;;;;;;5054491;28;20203;-74
2024/01/16 09:09:15;;;;;;;55.70;2.50;;;;;;;;;;5054671;28;20213;-75
2024/01/16 09:11:42;;;;;;;55.78;2.40;;;;;;;;;;5053965;28;20203;-74
2024/01/16 09:14:10;;;;;;;55.72;2.63;;;;;;;;;;5054437;28;20229;-74
2024/01/16 09:16:37;;;;;;;55.80;2.35;;;;;;;;;;5045553;28;20207;-74
2024/01/16 09:19:05;;;;;;;55.85;2.88;;;;;;;;;;5054573;28;20206;-74
2024/01/16 09:21:32;;;;;;;55.80;2.72;;;;;;;;;;5054213;28;20215;-74
2024/01/16 09:23:59;;;;;;;55.80;2.47;;;;;;;;;;5054124;28;20223;-75
2024/01/16 09:26:27;;;;;;;55.67;2.60;;;;;;;;;;5054057;28;20203;-74
2024/01/16 09:28:54;;;;;;;55.70;2.70;;;;;;;;;;5054299;28;20206;-75
2024/01/16 09:31:21;;;;;;;55.85;2.63;;;;;;;;;;5053827;28;20568;-73
2024/01/16 09:33:49;;;;;;;55.70;2.70;;;;;;;;;;5054111;28;20219;-74
2024/01/16 09:36:17;;;;;;;55.70;2.50;;;;;;;;;;5053788;28;20203;-74
2024/01/16 09:38:44;;;;;;;56.00;2.50;;;;;;;;;;5054213;28;20229;-75
2024/01/16 09:41:12;;;;;;;55.78;2.85;;;;;;;;;;5054006;28;20207;-74
2024/01/16 09:43:39;;;;;;;55.78;2.90;;;;;;;;;;5046277;28;20600;-75
2024/01/16 09:46:07;;;;;;;55.70;2.80;;;;;;;;;;5054305;28;20199;-74
2024/01/16 09:48:34;;;;;;;55.67;2.60;;;;;;;;;;5053893;28;20583;-74
2024/01/16 09:51:01;;;;;;;56.00;2.75;;;;;;;;;;5054228;28;20218;-74
2024/01/16 09:53:30;;;;;;;55.88;2.72;;;;;;;;;;5053446;28;20215;-74
2024/01/16 09:56:01;;;;;;;55.95;2.40;;;;;;;;;;5053860;28;20206;-74
2024/01/16 09:58:29;;;;;;;55.70;2.95;;;;;;;;;;5053749;28;20206;-75
2024/01/16 10:00:57;;;;;;;55.90;2.88;;;;;;;;;;5053583;28;20206;-74
2024/01/16 10:03:24;;;;;;;56.00;2.70;;;;;;;;;;5053557;28;20492;-74
2024/01/16 10:05:51;;;;;;;55.97;2.90;;;;;;;;;;5053417;28;20199;-74
2024/01/16 10:08:21;;;;;;;55.78;2.80;;;;;;;;;;5053176;28;20211;-73
2024/01/16 10:10:49;;;;;;;55.80;2.95;;;;;;;;;;5053693;28;20203;-74
2024/01/16 10:13:16;;;;;;;56.10;2.97;;;;;;;;;;5053610;28;20214;-74
2024/01/16 10:15:43;;;;;;;56.00;2.60;;;;;;;;;;5053072;28;20210;-74
2024/01/16 10:18:24;;;;;;;55.70;2.20;;;;;;;;;;5053271;28;20210;-73
2024/01/16 10:20:52;;;;;;;55.78;2.80;;;;;;;;;;5053097;28;20211;-73
2024/01/16 10:23:23;;;;;;;56.10;2.80;;;;;;;;;;5052661;28;20231;-73
2024/01/16 10:26:06;;;;;;;55.97;2.38;;;;;;;;;;5053268;28;20238;-73
2024/01/16 10:28:34;;;;;;;55.67;2.28;;;;;;;;;;5053179;28;20215;-73
2024/01/16 10:31:03;;;;;;;55.95;2.72;;;;;;;;;;5053096;28;20203;-73
2024/01/16 10:33:30;;;;;;;55.65;2.60;;;;;;;;;;5053124;28;20230;-73
2024/01/16 10:36:08;;;;;;;55.78;2.80;;;;;;;;;;5052901;28;20205;-73
2024/01/16 10:38:38;;;;;;;55.63;2.60;;;;;;;;;;5052795;28;20221;-73
2024/01/16 10:41:13;;;;;;;55.97;2.60;;;;;;;;;;5052853;28;20242;-73
2024/01/16 10:43:40;;;;;;;55.90;2.47;;;;;;;;;;5052591;28;20486;-73
2024/01/16 10:46:11;;;;;;;55.67;2.50;;;;;;;;;;5052760;28;20208;-73
2024/01/16 10:48:39;;;;;;;55.97;2.50;;;;;;;;;;5052630;28;20287;-73
2024/01/16 10:51:08;;;;;;;55.83;2.35;;;;;;;;;;5052816;28;20529;-73
2024/01/16 10:53:35;;;;;;;56.08;2.60;;;;;;;;;;5052289;28;20235;-73
2024/01/16 10:56:04;;;;;;;56.07;2.93;;;;;;;;;;5052882;28;20203;-73
2024/01/16 10:58:32;;;;;;;55.63;2.30;;;;;;;;;;5052590;28;20455;-74
2024/01/16 11:01:05;;;;;;;55.77;2.20;;;;;;;;;;5052623;28;20459;-73
2024/01/16 11:03:37;;;;;;;55.90;2.50;;;;;;;;;;5052304;28;20987;-74
2024/01/16 11:06:06;;;;;;;57.00;3.07;;;;;;;;;;5050715;28;21054;-75
2024/01/16 11:08:33;;;;;;;55.67;2.50;;;;;;;;;;5052468;28;20450;-75
2024/01/16 11:11:01;;;;;;;56.00;2.30;;;;;;;;;;5052614;28;20480;-75
2024/01/16 11:13:28;;;;;;;55.43;1.80;;;;;;;;;;5052238;28;20866;-75
2024/01/16 11:15:57;;;;;;;56.20;2.60;;;;;;;;;;5047230;28;20460;-72
2024/01/16 11:18:25;;;;;;;55.97;2.00;;;;;;;;;;5049449;28;20449;-73
2024/01/16 11:20:54;;;;;;;56.00;2.17;;;;;;;;;;5051185;28;20454;-75
2024/01/16 11:23:21;;;;;;;56.07;1.90;;;;;;;;;;5051305;28;20485;-75
2024/01/16 11:25:48;;;;;;;56.10;2.10;;;;;;;;;;5051365;28;20450;-74
2024/01/16 11:28:15;;;;;;;55.90;2.10;;;;;;;;;;5049908;28;20541;-75
2024/01/16 11:30:43;;;;;;;56.00;2.20;;;;;;;;;;5051983;28;20952;-75
2024/01/16 11:33:39;;;;;;;55.83;1.80;;;;;;;;;;5057609;28;20868;-72
2024/01/16 11:36:28;;;;;;;55.87;2.30;;;;;;;;;;5050995;28;20455;-73
2024/01/16 11:38:57;;;;;;;55.80;2.03;;;;;;;;;;5050951;28;20445;-72
2024/01/16 11:41:39;;;;;;;55.80;1.97;;;;;;;;;;5050956;28;20449;-72
2024/01/16 11:44:06;;;;;;;55.90;2.00;;;;;;;;;;5050590;28;20486;-73
2024/01/16 11:47:01;;;;;;;55.87;2.20;;;;;;;;;;5050823;28;20458;-76
2024/01/16 11:49:30;;;;;;;55.90;1.80;;;;;;;;;;5051388;28;20452;-74
2024/01/16 11:51:58;;;;;;;55.73;1.97;;;;;;;;;;5051101;28;20457;-75
2024/01/16 11:54:25;;;;;;;55.80;1.90;;;;;;;;;;5051204;28;20476;-75
2024/01/16 11:57:11;;;;;;;58.42;2.20;;;;;;;;;;5050294;28;20913;-74
2024/01/16 11:59:56;;;;;;;55.77;1.80;;;;;;;;;;5051487;28;20305;-75
2024/01/16 12:02:25;;;;;;;55.47;1.80;;;;;;;;;;5044390;28;20551;-75
2024/01/16 12:04:56;;;;;;;57.03;2.50;;;;;;;;;;5050648;28;20484;-73
2024/01/16 12:07:24;;;;;;;55.70;2.13;;;;;;;;;;5051205;28;20449;-74
2024/01/16 12:09:51;;;;;;;56.00;2.00;;;;;;;;;;5051211;28;20539;-73
2024/01/16 12:12:20;;;;;;;55.67;1.80;;;;;;;;;;5050985;28;20949;-73
2024/01/16 12:14:54;;;;;;;55.70;1.70;;;;;;;;;;5042830;28;20526;-74
2024/01/16 12:17:21;;;;;;;55.80;2.10;;;;;;;;;;5050169;28;20462;-74
2024/01/16 12:19:49;;;;;;;55.90;2.17;;;;;;;;;;5050955;28;20932;-74
2024/01/16 12:22:18;;;;;;;55.70;2.00;;;;;;;;;;5049430;28;20891;-74
2024/01/16 12:24:46;;;;;;;55.70;2.10;;;;;;;;;;5050984;28;20543;-73
2024/01/16 12:27:15;;;;;;;55.67;2.10;;;;;;;;;;5050619;28;20445;-74
2024/01/16 12:29:42;;;;;;;55.50;1.90;;;;;;;;;;5050984;28;21004;-75
2024/01/16 12:32:10;;;;;;;55.57;1.97;;;;;;;;;;5053936;28;20448;-75
2024/01/16 12:34:45;;;;;;;55.70;1.80;;;;;;;;;;5054769;28;20560;-74
2024/01/16 12:37:12;;;;;;;56.00;1.90;;;;;;;;;;5054985;28;20443;-74
2024/01/16 12:39:41;;;;;;;55.70;2.23;;;;;;;;;;5054648;28;20820;-75
2024/01/16 12:42:11;;;;;;;56.00;1.90;;;;;;;;;;5054957;28;20855;-75
2024/01/16 12:44:38;;;;;;;55.70;1.80;;;;;;;;;;5052739;28;20546;-75
2024/01/16 12:47:05;;;;;;;55.70;1.77;;;;;;;;;;5054636;28;20457;-73
2024/01/16 12:49:32;;;;;;;55.60;1.90;;;;;;;;;;5049766;28;20448;-74
2024/01/16 12:52:18;;;;;;;55.47;1.90;;;;;;;;;;5054868;28;20453;-74
2024/01/16 12:54:46;;;;;;;55.87;1.80;;;;;;;;;;5047718;28;21057;-75
2024/01/16 12:57:19;;;;;;;55.70;1.80;;;;;;;;;;5054152;28;20460;-75
2024/01/16 12:59:46;;;;;;;55.87;2.00;;;;;;;;;;5051018;28;20548;-74
2024/01/16 13:02:21;;;;;;;55.60;1.90;;;;;;;;;;5054299;28;20444;-74
2024/01/16 13:04:48;;;;;;;55.40;1.83;;;;;;;;;;5054234;28;20572;-75
2024/01/16 13:07:17;;;;;;;55.57;1.87;;;;;;;;;;5050404;28;20623;-73
2024/01/16 13:09:45;;;;;;;56.27;2.03;;;;;;;;;;5054161;28;20445;-75
2024/01/16 13:12:20;;;;;;;55.43;1.80;;;;;;;;;;5048833;28;20810;-74
2024/01/16 13:14:49;;;;;;;60.80;2.10;;;;;;;;;;5052734;28;20471;-73
2024/01/16 13:17:16;;;;;;;55.40;1.70;;;;;;;;;;5053647;28;20463;-73
2024/01/16 13:19:43;;;;;;;55.70;1.90;;;;;;;;;;5053059;28;20490;-75
2024/01/16 13:22:10;;;;;;;55.80;2.10;;;;;;;;;;5054208;28;20538;-74
2024/01/16 13:24:37;;;;;;;55.67;1.90;;;;;;;;;;5053862;28;20491;-74
2024/01/16 13:27:06;;;;;;;55.60;1.80;;;;;;;;;;5054030;28;20458;-74
2024/01/16 13:29:35;;;;;;;55.80;1.90;;;;;;;;;;5053739;28;20874;-73
2024/01/16 13:32:04;;;;;;;55.37;1.80;;;;;;;;;;5053827;28;20940;-74
2024/01/16 13:34:31;;;;;;;55.67;1.90;;;;;;;;;;5053607;28;20891;-74
2024/01/16 13:36:59;;;;;;;55.50;1.70;;;;;;;;;;5053209;28;20534;-74
2024/01/16 13:39:26;;;;;;;55.37;1.70;;;;;;;;;;5047376;28;20471;-74
2024/01/16 13:41:54;;;;;;;55.57;2.10;;;;;;;;;;5053922;28;20445;-74
2024/01/16 13:44:21;;;;;;;55.67;2.03;;;;;;;;;;5053892;28;20481;-74
2024/01/16 13:46:48;;;;;;;55.57;1.70;;;;;;;;;;5053629;28;20451;-75
2024/01/16 13:49:16;;;;;;;55.37;1.90;;;;;;;;;;5054396;28;20820;-74
2024/01/16 13:51:45;;;;;;;55.87;1.90;;;;;;;;;;5054313;28;20450;-74
2024/01/16 13:54:12;;;;;;;55.47;1.80;;;;;;;;;;5048722;28;20971;-75
2024/01/16 13:56:39;;;;;;;55.80;1.80;;;;;;;;;;5053711;28;20812;-74
2024/01/16 13:59:06;;;;;;;55.80;2.10;;;;;;;;;;5054207;28;20447;-73
2024/01/16 14:01:34;;;;;;;55.60;2.23;;;;;;;;;;5054350;28;20928;-73
2024/01/16 14:04:01;;;;;;;55.90;2.10;;;;;;;;;;5053630;28;20468;-73
2024/01/16 14:06:29;;;;;;;55.77;2.10;;;;;;;;;;5053311;28;20485;-74
2024/01/16 14:08:56;;;;;;;56.10;2.00;;;;;;;;;;5054007;28;20453;-73
2024/01/16 14:11:23;;;;;;;56.07;2.00;;;;;;;;;;5053496;28;20454;-73
2024/01/16 14:13:51;;;;;;;56.27;2.10;;;;;;;;;;5053081;28;20474;-73
2024/01/16 14:16:20;;;;;;;56.47;2.30;;;;;;;;;;5053109;28;20452;-74
2024/01/16 14:18:47;;;;;;;56.07;2.10;;;;;;;;;;5054000;28;20456;-75
2024/01/16 14:21:14;;;;;;;56.07;1.93;;;;;;;;;;5053091;28;20447;-74
2024/01/16 14:23:42;;;;;;;55.73;1.90;;;;;;;;;;5053193;28;20472;-74
2024/01/16 14:26:09;;;;;;;56.90;2.20;;;;;;;;;;5052961;28;20487;-74
2024/01/16 14:28:37;;;;;;;55.77;2.10;;;;;;;;;;5052846;28;20936;-74
2024/01/16 14:31:04;;;;;;;55.97;1.90;;;;;;;;;;5053204;28;20453;-75
2024/01/16 14:33:31;;;;;;;55.87;2.00;;;;;;;;;;5053263;28;20469;-74
2024/01/16 14:35:59;;;;;;;55.87;2.10;;;;;;;;;;5053068;28;20450;-74